sensor_id;sensor_type;location;lat;lon;timestamp;pressure;altitude;pressure_sealevel;temperature;humidity
9721;BME280;4899;42.644;23.366;2022-07-29T00:01:43;94467.78;;;18.12;100.00
9721;BME280;4899;42.644;23.366;2022-07-29T00:04:12;94476.00;;;18.14;100.00
9721;BME280;4899;42.644;23.366;2022-07-29T00:06:39;94483.78;;;18.14;100.00
9721;BME280;4899;42.644;23.366;2022-07-29T00:09:06;94489.75;;;18.15;100.00
9721;BME280;4899;42.644;23.366;2022-07-29T00:11:33;94489.22;;;18.06;100.00
9721;BME280;4899;42.644;23.366;2022-07-29T00:14:00;94488.88;;;18.07;100.00
9721;BME280;4899;42.644;23.366;2022-07-29T00:16:27;94492.97;;;18.08;100.00
9721;BME280;4899;42.644;23.366;2022-07-29T00:18:54;94496.75;;;18.11;100.00
9721;BME280;4899;42.644;23.366;2022-07-29T00:21:23;94497.88;;;18.10;100.00
9721;BME280;4899;42.644;23.366;2022-07-29T00:23:49;94492.56;;;18.06;100.00
9721;BME280;4899;42.644;23.366;2022-07-29T00:26:16;94496.41;;;18.12;100.00
9721;BME280;4899;42.644;23.366;2022-07-29T00:28:43;94499.72;;;18.09;100.00
9721;BME280;4899;42.644;23.366;2022-07-29T00:31:10;94491.22;;;18.12;100.00
9721;BME280;4899;42.644;23.366;2022-07-29T00:33:37;94490.16;;;18.17;100.00
9721;BME280;4899;42.644;23.366;2022-07-29T00:36:04;94488.59;;;18.12;100.00
9721;BME280;4899;42.644;23.366;2022-07-29T00:38:31;94486.00;;;18.12;100.00
9721;BME280;4899;42.644;23.366;2022-07-29T00:40:58;94485.88;;;18.05;100.00
9721;BME280;4899;42.644;23.366;2022-07-29T00:43:25;94492.66;;;18.10;100.00
9721;BME280;4899;42.644;23.366;2022-07-29T00:45:52;94496.69;;;18.07;100.00
9721;BME280;4899;42.644;23.366;2022-07-29T00:48:19;94494.72;;;18.01;100.00
9721;BME280;4899;42.644;23.366;2022-07-29T00:50:46;94494.53;;;17.90;100.00
9721;BME280;4899;42.644;23.366;2022-07-29T00:53:13;94502.22;;;17.83;100.00
9721;BME280;4899;42.644;23.366;2022-07-29T00:55:41;94495.09;;;17.80;100.00
9721;BME280;4899;42.644;23.366;2022-07-29T00:58:08;94497.19;;;17.71;100.00
9721;BME280;4899;42.644;23.366;2022-07-29T01:00:35;94499.28;;;17.65;100.00
9721;BME280;4899;42.644;23.366;2022-07-29T01:03:02;94495.88;;;17.61;100.00
9721;BME280;4899;42.644;23.366;2022-07-29T01:05:29;94488.81;;;17.62;100.00
9721;BME280;4899;42.644;23.366;2022-07-29T01:07:57;94487.72;;;17.63;100.00
9721;BME280;4899;42.644;23.366;2022-07-29T01:10:25;94480.09;;;17.54;100.00
9721;BME280;4899;42.644;23.366;2022-07-29T01:12:55;94494.69;;;17.59;100.00
9721;BME280;4899;42.644;23.366;2022-07-29T01:15:24;94476.75;;;17.53;100.00
9721;BME280;4899;42.644;23.366;2022-07-29T01:17:56;94486.97;;;17.62;100.00
9721;BME280;4899;42.644;23.366;2022-07-29T01:20:31;94480.44;;;17.52;100.00
9721;BME280;4899;42.644;23.366;2022-07-29T01:23:19;94483.19;;;17.60;100.00
9721;BME280;4899;42.644;23.366;2022-07-29T01:26:06;94482.09;;;17.61;100.00
9721;BME280;4899;42.644;23.366;2022-07-29T01:28:52;94485.03;;;17.59;100.00
9721;BME280;4899;42.644;23.366;2022-07-29T01:31:26;94485.47;;;17.61;100.00
9721;BME280;4899;42.644;23.366;2022-07-29T01:33:58;94486.81;;;17.55;100.00
9721;BME280;4899;42.644;23.366;2022-07-29T01:36:31;94473.13;;;17.58;100.00
9721;BME280;4899;42.644;23.366;2022-07-29T01:39:05;94473.75;;;17.51;100.00
9721;BME280;4899;42.644;23.366;2022-07-29T01:41:34;94476.16;;;17.60;100.00
9721;BME280;4899;42.644;23.366;2022-07-29T01:44:11;94469.41;;;17.59;100.00
9721;BME280;4899;42.644;23.366;2022-07-29T01:46:42;94463.06;;;17.57;100.00
9721;BME280;4899;42.644;23.366;2022-07-29T01:49:14;94462.03;;;17.61;100.00
9721;BME280;4899;42.644;23.366;2022-07-29T01:51:47;94471.00;;;17.64;100.00
9721;BME280;4899;42.644;23.366;2022-07-29T01:54:20;94461.63;;;17.59;100.00
9721;BME280;4899;42.644;23.366;2022-07-29T01:56:49;94466.97;;;17.47;100.00
9721;BME280;4899;42.644;23.366;2022-07-29T01:59:21;94472.00;;;17.36;100.00
9721;BME280;4899;42.644;23.366;2022-07-29T02:01:49;94467.44;;;17.33;100.00
9721;BME280;4899;42.644;23.366;2022-07-29T02:04:19;94461.50;;;17.33;100.00
9721;BME280;4899;42.644;23.366;2022-07-29T02:06:49;94440.78;;;17.17;100.00
9721;BME280;4899;42.644;23.366;2022-07-29T02:09:18;94460.00;;;17.32;100.00
9721;BME280;4899;42.644;23.366;2022-07-29T02:11:49;94459.25;;;17.31;100.00
9721;BME280;4899;42.644;23.366;2022-07-29T02:14:21;94443.53;;;17.24;100.00
9721;BME280;4899;42.644;23.366;2022-07-29T02:16:52;94447.22;;;17.23;100.00
9721;BME280;4899;42.644;23.366;2022-07-29T02:19:22;94442.81;;;17.27;100.00
9721;BME280;4899;42.644;23.366;2022-07-29T02:21:51;94446.59;;;17.30;100.00
9721;BME280;4899;42.644;23.366;2022-07-29T02:24:19;94448.91;;;17.35;100.00
9721;BME280;4899;42.644;23.366;2022-07-29T02:26:49;94439.28;;;17.35;100.00
9721;BME280;4899;42.644;23.366;2022-07-29T02:29:16;94446.94;;;17.28;100.00
9721;BME280;4899;42.644;23.366;2022-07-29T02:31:48;94454.47;;;17.14;100.00
9721;BME280;4899;42.644;23.366;2022-07-29T02:34:17;94434.34;;;16.91;100.00
9721;BME280;4899;42.644;23.366;2022-07-29T02:36:45;94440.78;;;16.98;100.00
9721;BME280;4899;42.644;23.366;2022-07-29T02:39:13;94434.34;;;16.91;100.00
9721;BME280;4899;42.644;23.366;2022-07-29T02:41:44;94429.97;;;16.96;100.00
9721;BME280;4899;42.644;23.366;2022-07-29T02:44:14;94429.75;;;17.04;100.00
9721;BME280;4899;42.644;23.366;2022-07-29T02:46:48;94421.97;;;17.04;100.00
9721;BME280;4899;42.644;23.366;2022-07-29T02:49:18;94420.19;;;17.08;100.00
9721;BME280;4899;42.644;23.366;2022-07-29T02:51:53;94414.97;;;17.08;100.00
9721;BME280;4899;42.644;23.366;2022-07-29T02:54:24;94398.97;;;17.06;100.00
9721;BME280;4899;42.644;23.366;2022-07-29T02:56:54;94421.22;;;17.23;100.00
9721;BME280;4899;42.644;23.366;2022-07-29T02:59:26;94421.56;;;17.21;100.00
9721;BME280;4899;42.644;23.366;2022-07-29T03:01:57;94418.22;;;17.21;100.00
9721;BME280;4899;42.644;23.366;2022-07-29T03:04:26;94405.44;;;17.12;100.00
9721;BME280;4899;42.644;23.366;2022-07-29T03:06:56;94422.16;;;17.34;100.00
9721;BME280;4899;42.644;23.366;2022-07-29T03:09:25;94410.13;;;17.26;100.00
9721;BME280;4899;42.644;23.366;2022-07-29T03:11:53;94412.44;;;17.31;100.00
9721;BME280;4899;42.644;23.366;2022-07-29T03:14:21;94426.53;;;17.30;100.00
9721;BME280;4899;42.644;23.366;2022-07-29T03:16:49;94423.06;;;17.22;100.00
9721;BME280;4899;42.644;23.366;2022-07-29T03:19:19;94424.84;;;17.18;100.00
9721;BME280;4899;42.644;23.366;2022-07-29T03:21:47;94433.75;;;17.17;100.00
9721;BME280;4899;42.644;23.366;2022-07-29T03:24:28;94438.88;;;17.14;100.00
9721;BME280;4899;42.644;23.366;2022-07-29T03:26:56;94423.97;;;17.11;100.00
9721;BME280;4899;42.644;23.366;2022-07-29T03:29:23;94418.63;;;17.04;100.00
9721;BME280;4899;42.644;23.366;2022-07-29T03:31:51;94432.84;;;17.10;100.00
9721;BME280;4899;42.644;23.366;2022-07-29T03:34:19;94430.50;;;17.05;100.00
9721;BME280;4899;42.644;23.366;2022-07-29T03:36:47;94433.53;;;17.07;100.00
9721;BME280;4899;42.644;23.366;2022-07-29T03:39:16;94425.66;;;17.03;100.00
9721;BME280;4899;42.644;23.366;2022-07-29T03:41:45;94429.28;;;16.99;100.00
9721;BME280;4899;42.644;23.366;2022-07-29T03:44:15;94436.41;;;17.02;100.00
9721;BME280;4899;42.644;23.366;2022-07-29T03:46:43;94432.72;;;17.03;100.00
9721;BME280;4899;42.644;23.366;2022-07-29T03:49:11;94438.66;;;17.03;100.00
9721;BME280;4899;42.644;23.366;2022-07-29T03:51:40;94440.91;;;17.05;100.00
9721;BME280;4899;42.644;23.366;2022-07-29T03:54:07;94441.59;;;17.02;100.00
9721;BME280;4899;42.644;23.366;2022-07-29T03:56:37;94446.44;;;17.03;100.00
9721;BME280;4899;42.644;23.366;2022-07-29T03:59:05;94447.69;;;17.09;100.00
9721;BME280;4899;42.644;23.366;2022-07-29T04:01:33;94446.00;;;17.17;100.00
9721;BME280;4899;42.644;23.366;2022-07-29T04:04:01;94448.66;;;17.20;100.00
9721;BME280;4899;42.644;23.366;2022-07-29T04:06:29;94439.69;;;17.18;100.00
9721;BME280;4899;42.644;23.366;2022-07-29T04:08:57;94449.53;;;17.28;100.00
9721;BME280;4899;42.644;23.366;2022-07-29T04:11:24;94454.03;;;17.31;100.00
9721;BME280;4899;42.644;23.366;2022-07-29T04:13:50;94455.88;;;17.31;100.00
9721;BME280;4899;42.644;23.366;2022-07-29T04:16:17;94448.38;;;17.26;100.00
9721;BME280;4899;42.644;23.366;2022-07-29T04:18:44;94449.94;;;17.30;100.00
9721;BME280;4899;42.644;23.366;2022-07-29T04:21:11;94453.34;;;17.34;100.00
9721;BME280;4899;42.644;23.366;2022-07-29T04:23:38;94447.28;;;17.46;100.00
9721;BME280;4899;42.644;23.366;2022-07-29T04:26:06;94445.47;;;17.50;100.00
9721;BME280;4899;42.644;23.366;2022-07-29T04:28:35;94442.47;;;17.48;100.00
9721;BME280;4899;42.644;23.366;2022-07-29T04:31:01;94444.84;;;17.57;100.00
9721;BME280;4899;42.644;23.366;2022-07-29T04:33:28;94435.19;;;17.57;100.00
9721;BME280;4899;42.644;23.366;2022-07-29T04:35:55;94448.84;;;17.70;100.00
9721;BME280;4899;42.644;23.366;2022-07-29T04:38:22;94434.44;;;17.57;100.00
9721;BME280;4899;42.644;23.366;2022-07-29T04:40:48;94446.63;;;17.72;100.00
9721;BME280;4899;42.644;23.366;2022-07-29T04:43:17;94462.22;;;17.91;100.00
9721;BME280;4899;42.644;23.366;2022-07-29T04:45:44;94468.63;;;17.97;100.00
9721;BME280;4899;42.644;23.366;2022-07-29T04:48:10;94467.25;;;18.03;100.00
9721;BME280;4899;42.644;23.366;2022-07-29T04:50:38;94473.44;;;18.18;100.00
9721;BME280;4899;42.644;23.366;2022-07-29T04:53:04;94462.31;;;18.21;100.00
9721;BME280;4899;42.644;23.366;2022-07-29T04:55:31;94466.31;;;18.38;100.00
9721;BME280;4899;42.644;23.366;2022-07-29T04:57:58;94468.66;;;18.47;100.00
9721;BME280;4899;42.644;23.366;2022-07-29T05:00:27;94475.94;;;18.60;100.00
9721;BME280;4899;42.644;23.366;2022-07-29T05:02:53;94476.75;;;18.64;100.00
9721;BME280;4899;42.644;23.366;2022-07-29T05:05:20;94486.28;;;18.80;100.00
9721;BME280;4899;42.644;23.366;2022-07-29T05:07:47;94481.91;;;18.87;100.00
9721;BME280;4899;42.644;23.366;2022-07-29T05:10:14;94477.16;;;18.93;100.00
9721;BME280;4899;42.644;23.366;2022-07-29T05:12:41;94484.75;;;19.05;100.00
9721;BME280;4899;42.644;23.366;2022-07-29T05:15:09;94482.25;;;19.12;100.00
9721;BME280;4899;42.644;23.366;2022-07-29T05:17:37;94480.78;;;19.15;100.00
9721;BME280;4899;42.644;23.366;2022-07-29T05:20:05;94497.66;;;19.24;100.00
9721;BME280;4899;42.644;23.366;2022-07-29T05:22:32;94491.75;;;19.31;100.00
9721;BME280;4899;42.644;23.366;2022-07-29T05:24:59;94489.97;;;19.35;100.00
9721;BME280;4899;42.644;23.366;2022-07-29T05:27:26;94491.50;;;19.40;100.00
9721;BME280;4899;42.644;23.366;2022-07-29T05:29:53;94481.84;;;19.44;100.00
9721;BME280;4899;42.644;23.366;2022-07-29T05:32:19;94496.94;;;19.57;100.00
9721;BME280;4899;42.644;23.366;2022-07-29T05:34:48;94496.31;;;19.67;100.00
9721;BME280;4899;42.644;23.366;2022-07-29T05:37:14;94489.66;;;19.74;100.00
9721;BME280;4899;42.644;23.366;2022-07-29T05:39:41;94500.25;;;19.88;100.00
9721;BME280;4899;42.644;23.366;2022-07-29T05:42:08;94485.75;;;19.94;100.00
9721;BME280;4899;42.644;23.366;2022-07-29T05:44:36;94493.31;;;20.06;100.00
9721;BME280;4899;42.644;23.366;2022-07-29T05:47:03;94493.75;;;20.12;100.00
9721;BME280;4899;42.644;23.366;2022-07-29T05:49:30;94493.44;;;20.20;100.00
9721;BME280;4899;42.644;23.366;2022-07-29T05:51:58;94504.06;;;20.38;100.00
9721;BME280;4899;42.644;23.366;2022-07-29T05:54:25;94505.25;;;20.48;100.00
9721;BME280;4899;42.644;23.366;2022-07-29T05:56:52;94503.44;;;20.55;100.00
9721;BME280;4899;42.644;23.366;2022-07-29T05:59:19;94509.16;;;20.72;100.00
9721;BME280;4899;42.644;23.366;2022-07-29T06:01:45;94513.31;;;20.80;100.00
9721;BME280;4899;42.644;23.366;2022-07-29T06:04:12;94513.78;;;20.89;100.00
9721;BME280;4899;42.644;23.366;2022-07-29T06:06:39;94499.59;;;20.97;100.00
9721;BME280;4899;42.644;23.366;2022-07-29T06:09:07;94517.28;;;21.14;100.00
9721;BME280;4899;42.644;23.366;2022-07-29T06:11:34;94510.94;;;21.19;100.00
9721;BME280;4899;42.644;23.366;2022-07-29T06:14:01;94514.69;;;21.22;100.00
9721;BME280;4899;42.644;23.366;2022-07-29T06:16:28;94503.09;;;21.23;100.00
9721;BME280;4899;42.644;23.366;2022-07-29T06:18:55;94507.31;;;21.38;100.00
9721;BME280;4899;42.644;23.366;2022-07-29T06:21:22;94520.78;;;21.43;100.00
9721;BME280;4899;42.644;23.366;2022-07-29T06:23:49;94489.00;;;21.41;100.00
9721;BME280;4899;42.644;23.366;2022-07-29T06:26:17;94510.41;;;21.61;100.00
9721;BME280;4899;42.644;23.366;2022-07-29T06:28:44;94504.41;;;21.64;100.00
9721;BME280;4899;42.644;23.366;2022-07-29T06:31:11;94504.81;;;21.73;100.00
9721;BME280;4899;42.644;23.366;2022-07-29T06:33:37;94515.69;;;21.86;100.00
9721;BME280;4899;42.644;23.366;2022-07-29T06:36:05;94512.34;;;21.93;100.00
9721;BME280;4899;42.644;23.366;2022-07-29T06:38:32;94510.09;;;22.02;100.00
9721;BME280;4899;42.644;23.366;2022-07-29T06:40:59;94509.78;;;22.07;100.00
9721;BME280;4899;42.644;23.366;2022-07-29T06:43:29;94506.78;;;22.12;100.00
9721;BME280;4899;42.644;23.366;2022-07-29T06:46:00;94514.28;;;22.21;100.00
9721;BME280;4899;42.644;23.366;2022-07-29T06:48:28;94509.41;;;22.30;100.00
9721;BME280;4899;42.644;23.366;2022-07-29T06:50:55;94503.06;;;22.34;100.00
9721;BME280;4899;42.644;23.366;2022-07-29T06:53:22;94500.81;;;22.47;100.00
9721;BME280;4899;42.644;23.366;2022-07-29T06:58:16;94503.44;;;22.65;100.00
9721;BME280;4899;42.644;23.366;2022-07-29T07:00:47;94492.94;;;22.68;100.00
9721;BME280;4899;42.644;23.366;2022-07-29T07:03:14;94490.69;;;22.67;100.00
9721;BME280;4899;42.644;23.366;2022-07-29T07:05:41;94508.28;;;22.77;100.00
9721;BME280;4899;42.644;23.366;2022-07-29T07:08:08;94500.44;;;22.84;100.00
9721;BME280;4899;42.644;23.366;2022-07-29T07:10:35;94500.75;;;23.04;100.00
9721;BME280;4899;42.644;23.366;2022-07-29T07:13:02;94495.09;;;23.16;100.00
9721;BME280;4899;42.644;23.366;2022-07-29T07:15:30;94502.94;;;23.27;100.00
9721;BME280;4899;42.644;23.366;2022-07-29T07:17:59;94503.25;;;23.43;100.00
9721;BME280;4899;42.644;23.366;2022-07-29T07:20:26;94497.59;;;23.52;100.00
9721;BME280;4899;42.644;23.366;2022-07-29T07:22:53;94493.13;;;23.56;100.00
9721;BME280;4899;42.644;23.366;2022-07-29T07:25:20;94486.34;;;23.58;100.00
9721;BME280;4899;42.644;23.366;2022-07-29T07:27:47;94470.97;;;23.57;100.00
9721;BME280;4899;42.644;23.366;2022-07-29T07:30:13;94500.78;;;23.91;100.00
9721;BME280;4899;42.644;23.366;2022-07-29T07:32:40;94489.94;;;23.86;100.00
9721;BME280;4899;42.644;23.366;2022-07-29T07:35:10;94471.13;;;23.94;100.00
9721;BME280;4899;42.644;23.366;2022-07-29T07:37:37;94488.22;;;24.20;100.00
9721;BME280;4899;42.644;23.366;2022-07-29T07:40:07;94491.91;;;24.27;100.00
9721;BME280;4899;42.644;23.366;2022-07-29T07:42:34;94493.41;;;24.35;100.00
9721;BME280;4899;42.644;23.366;2022-07-29T07:45:01;94482.16;;;24.31;100.00
9721;BME280;4899;42.644;23.366;2022-07-29T07:47:28;94498.63;;;24.38;100.00
9721;BME280;4899;42.644;23.366;2022-07-29T07:49:55;94495.66;;;24.36;100.00
9721;BME280;4899;42.644;23.366;2022-07-29T07:52:23;94490.31;;;24.43;100.00
9721;BME280;4899;42.644;23.366;2022-07-29T07:54:50;94492.84;;;24.58;100.00
9721;BME280;4899;42.644;23.366;2022-07-29T07:57:17;94493.84;;;24.71;100.00
9721;BME280;4899;42.644;23.366;2022-07-29T07:59:43;94497.53;;;24.77;100.00
9721;BME280;4899;42.644;23.366;2022-07-29T08:02:10;94497.53;;;24.80;100.00
9721;BME280;4899;42.644;23.366;2022-07-29T08:04:37;94501.09;;;24.97;100.00
9721;BME280;4899;42.644;23.366;2022-07-29T08:07:06;94504.38;;;25.12;100.00
9721;BME280;4899;42.644;23.366;2022-07-29T08:09:36;94435.13;;;24.77;100.00
9721;BME280;4899;42.644;23.366;2022-07-29T08:12:03;94443.06;;;24.74;100.00
9721;BME280;4899;42.644;23.366;2022-07-29T08:14:31;94464.25;;;24.97;100.00
9721;BME280;4899;42.644;23.366;2022-07-29T08:17:00;94438.16;;;24.76;100.00
9721;BME280;4899;42.644;23.366;2022-07-29T08:19:30;94463.50;;;25.00;100.00
9721;BME280;4899;42.644;23.366;2022-07-29T08:21:57;94494.66;;;25.39;100.00
9721;BME280;4899;42.644;23.366;2022-07-29T08:24:24;94474.94;;;25.51;100.00
9721;BME280;4899;42.644;23.366;2022-07-29T08:27:09;94480.66;;;25.76;100.00
9721;BME280;4899;42.644;23.366;2022-07-29T08:29:37;94475.72;;;25.82;100.00
9721;BME280;4899;42.644;23.366;2022-07-29T08:32:04;94479.28;;;25.95;100.00
9721;BME280;4899;42.644;23.366;2022-07-29T08:34:31;94483.25;;;26.07;100.00
9721;BME280;4899;42.644;23.366;2022-07-29T08:36:58;94489.38;;;26.27;97.41
9721;BME280;4899;42.644;23.366;2022-07-29T08:39:25;94487.19;;;26.46;90.71
9721;BME280;4899;42.644;23.366;2022-07-29T08:41:52;94481.44;;;26.54;84.20
9721;BME280;4899;42.644;23.366;2022-07-29T08:44:21;94487.19;;;26.69;89.70
9721;BME280;4899;42.644;23.366;2022-07-29T08:46:49;94486.56;;;26.85;88.19
9721;BME280;4899;42.644;23.366;2022-07-29T08:49:16;94481.03;;;26.99;80.68
9721;BME280;4899;42.644;23.366;2022-07-29T08:51:43;94484.38;;;27.03;88.20
9721;BME280;4899;42.644;23.366;2022-07-29T08:54:11;94489.22;;;27.24;85.54
9721;BME280;4899;42.644;23.366;2022-07-29T08:56:42;94486.31;;;27.39;85.60
9721;BME280;4899;42.644;23.366;2022-07-29T08:59:10;94481.22;;;27.48;72.00
9721;BME280;4899;42.644;23.366;2022-07-29T09:01:39;94483.94;;;27.64;71.88
9721;BME280;4899;42.644;23.366;2022-07-29T09:04:11;94474.06;;;27.84;67.64
9721;BME280;4899;42.644;23.366;2022-07-29T09:06:42;94483.38;;;28.09;68.49
9721;BME280;4899;42.644;23.366;2022-07-29T09:09:10;94412.41;;;27.71;66.01
9721;BME280;4899;42.644;23.366;2022-07-29T09:12:02;94432.44;;;28.05;65.33
9721;BME280;4899;42.644;23.366;2022-07-29T09:14:33;94475.59;;;28.18;64.54
9721;BME280;4899;42.644;23.366;2022-07-29T09:17:02;94472.69;;;28.12;66.60
9721;BME280;4899;42.644;23.366;2022-07-29T09:19:33;94478.06;;;28.09;72.69
9721;BME280;4899;42.644;23.366;2022-07-29T09:22:02;94445.00;;;27.84;70.63
9721;BME280;4899;42.644;23.366;2022-07-29T09:24:42;94379.06;;;27.41;69.09
9721;BME280;4899;42.644;23.366;2022-07-29T09:27:37;94446.22;;;27.80;70.05
9721;BME280;4899;42.644;23.366;2022-07-29T09:30:06;94477.72;;;27.91;73.53
9721;BME280;4899;42.644;23.366;2022-07-29T09:36:03;94449.19;;;27.98;70.27
9721;BME280;4899;42.644;23.366;2022-07-29T09:39:15;94398.56;;;27.83;68.29
9721;BME280;4899;42.644;23.366;2022-07-29T09:41:44;94468.81;;;28.49;67.76
9721;BME280;4899;42.644;23.366;2022-07-29T09:44:14;94417.47;;;28.14;65.77
9721;BME280;4899;42.644;23.366;2022-07-29T09:47:03;94390.75;;;28.25;64.23
9721;BME280;4899;42.644;23.366;2022-07-29T09:49:53;94421.25;;;28.91;64.51
9721;BME280;4899;42.644;23.366;2022-07-29T09:52:46;94462.59;;;29.43;64.58
9721;BME280;4899;42.644;23.366;2022-07-29T09:55:13;94460.63;;;29.73;69.18
9721;BME280;4899;42.644;23.366;2022-07-29T10:05:33;94373.03;;;30.23;59.92
9721;BME280;4899;42.644;23.366;2022-07-29T10:06:56;94455.13;;;31.21;61.12
9721;BME280;4899;42.644;23.366;2022-07-29T10:09:33;94437.75;;;31.30;56.97
9721;BME280;4899;42.644;23.366;2022-07-29T10:15:36;94399.22;;;31.34;55.95
9721;BME280;4899;42.644;23.366;2022-07-29T10:18:19;94434.84;;;31.37;55.12
9721;BME280;4899;42.644;23.366;2022-07-29T10:21:00;94336.69;;;30.33;54.90
9721;BME280;4899;42.644;23.366;2022-07-29T10:23:30;94377.38;;;30.30;56.60
9721;BME280;4899;42.644;23.366;2022-07-29T10:38:04;94383.94;;;30.38;60.26
9721;BME280;4899;42.644;23.366;2022-07-29T10:40:45;94414.88;;;30.88;55.11
9721;BME280;4899;42.644;23.366;2022-07-29T10:43:40;94418.34;;;30.98;56.76
9721;BME280;4899;42.644;23.366;2022-07-29T10:46:13;94390.66;;;31.08;54.00
9721;BME280;4899;42.644;23.366;2022-07-29T10:49:05;94409.66;;;31.50;52.49
9721;BME280;4899;42.644;23.366;2022-07-29T10:51:54;94339.41;;;31.39;54.63
9721;BME280;4899;42.644;23.366;2022-07-29T10:54:45;94403.19;;;32.19;53.38
9721;BME280;4899;42.644;23.366;2022-07-29T10:57:31;94389.72;;;32.13;51.14
9721;BME280;4899;42.644;23.366;2022-07-29T11:00:31;94399.41;;;32.66;52.72
9721;BME280;4899;42.644;23.366;2022-07-29T11:03:01;94361.09;;;33.33;50.31
9721;BME280;4899;42.644;23.366;2022-07-29T11:05:30;94401.63;;;35.13;44.99
9721;BME280;4899;42.644;23.366;2022-07-29T11:08:21;94382.34;;;34.95;45.10
9721;BME280;4899;42.644;23.366;2022-07-29T11:10:50;94412.72;;;36.41;45.68
9721;BME280;4899;42.644;23.366;2022-07-29T11:13:48;94409.91;;;37.85;41.32
9721;BME280;4899;42.644;23.366;2022-07-29T11:16:17;94413.81;;;39.31;37.82
9721;BME280;4899;42.644;23.366;2022-07-29T11:19:22;94402.63;;;40.36;35.94
9721;BME280;4899;42.644;23.366;2022-07-29T11:21:50;94363.66;;;41.13;34.56
9721;BME280;4899;42.644;23.366;2022-07-29T11:24:41;94366.22;;;41.90;31.97
9721;BME280;4899;42.644;23.366;2022-07-29T11:27:22;94408.06;;;42.70;32.42
9721;BME280;4899;42.644;23.366;2022-07-29T11:30:11;94353.38;;;42.34;31.72
9721;BME280;4899;42.644;23.366;2022-07-29T11:32:39;94402.13;;;43.41;30.67
9721;BME280;4899;42.644;23.366;2022-07-29T11:35:16;94410.31;;;43.94;29.26
9721;BME280;4899;42.644;23.366;2022-07-29T11:37:45;94377.88;;;44.15;30.20
9721;BME280;4899;42.644;23.366;2022-07-29T11:41:58;94319.28;;;43.72;28.15
9721;BME280;4899;42.644;23.366;2022-07-29T11:43:49;94369.19;;;44.03;28.22
9721;BME280;4899;42.644;23.366;2022-07-29T11:46:44;94402.03;;;45.21;26.91
9721;BME280;4899;42.644;23.366;2022-07-29T11:52:47;94390.94;;;41.75;30.95
9721;BME280;4899;42.644;23.366;2022-07-29T11:56:39;94293.50;;;39.95;30.86
9721;BME280;4899;42.644;23.366;2022-07-29T12:01:30;94351.94;;;42.71;29.20
9721;BME280;4899;42.644;23.366;2022-07-29T12:04:03;94369.19;;;44.03;29.33
9721;BME280;4899;42.644;23.366;2022-07-29T12:06:33;94373.59;;;45.01;27.47
9721;BME280;4899;42.644;23.366;2022-07-29T12:09:06;94385.00;;;45.41;26.98
9721;BME280;4899;42.644;23.366;2022-07-29T12:12:09;94340.97;;;45.43;25.91
9721;BME280;4899;42.644;23.366;2022-07-29T12:15:27;94354.47;;;45.56;26.09
9721;BME280;4899;42.644;23.366;2022-07-29T12:18:45;94352.63;;;45.51;26.13
9721;BME280;4899;42.644;23.366;2022-07-29T12:21:04;94387.13;;;46.13;25.91
9721;BME280;4899;42.644;23.366;2022-07-29T12:23:33;94358.78;;;46.44;26.14
9721;BME280;4899;42.644;23.366;2022-07-29T12:26:03;94376.13;;;46.77;25.23
9721;BME280;4899;42.644;23.366;2022-07-29T12:28:37;94383.72;;;45.91;25.52
9721;BME280;4899;42.644;23.366;2022-07-29T12:34:30;94334.13;;;46.73;25.83
9721;BME280;4899;42.644;23.366;2022-07-29T12:37:11;94378.63;;;48.13;24.88
9721;BME280;4899;42.644;23.366;2022-07-29T12:43:10;94338.19;;;47.48;24.14
9721;BME280;4899;42.644;23.366;2022-07-29T12:45:38;94382.72;;;47.43;23.77
9721;BME280;4899;42.644;23.366;2022-07-29T12:52:24;94329.19;;;46.48;24.10
9721;BME280;4899;42.644;23.366;2022-07-29T12:54:51;94341.44;;;46.78;24.53
9721;BME280;4899;42.644;23.366;2022-07-29T12:57:18;94345.91;;;46.09;24.53
9721;BME280;4899;42.644;23.366;2022-07-29T13:02:46;94344.84;;;46.71;25.39
9721;BME280;4899;42.644;23.366;2022-07-29T13:05:42;94301.84;;;47.00;23.55
9721;BME280;4899;42.644;23.366;2022-07-29T13:08:14;94312.56;;;47.43;24.39
9721;BME280;4899;42.644;23.366;2022-07-29T13:11:26;94298.41;;;48.00;23.35
9721;BME280;4899;42.644;23.366;2022-07-29T13:14:20;94291.59;;;48.57;23.28
9721;BME280;4899;42.644;23.366;2022-07-29T13:17:04;94328.13;;;48.69;22.99
9721;BME280;4899;42.644;23.366;2022-07-29T13:19:37;94340.84;;;48.42;22.98
9721;BME280;4899;42.644;23.366;2022-07-29T13:22:08;94273.13;;;47.06;23.49
9721;BME280;4899;42.644;23.366;2022-07-29T13:24:45;94322.72;;;47.58;23.92
9721;BME280;4899;42.644;23.366;2022-07-29T13:27:29;94322.34;;;46.78;24.76
9721;BME280;4899;42.644;23.366;2022-07-29T13:30:01;94316.91;;;46.78;25.16
9721;BME280;4899;42.644;23.366;2022-07-29T13:33:42;94284.75;;;46.02;25.10
9721;BME280;4899;42.644;23.366;2022-07-29T13:36:01;94313.31;;;46.24;24.72
9721;BME280;4899;42.644;23.366;2022-07-29T13:38:29;94318.69;;;46.68;24.73
9721;BME280;4899;42.644;23.366;2022-07-29T13:42:07;94272.19;;;46.50;24.93
9721;BME280;4899;42.644;23.366;2022-07-29T13:44:36;94296.50;;;46.41;24.00
9721;BME280;4899;42.644;23.366;2022-07-29T13:53:43;94308.63;;;45.88;24.91
9721;BME280;4899;42.644;23.366;2022-07-29T13:56:31;94269.16;;;46.10;24.21
9721;BME280;4899;42.644;23.366;2022-07-29T13:59:57;94275.09;;;46.45;24.03
9721;BME280;4899;42.644;23.366;2022-07-29T14:02:07;94308.56;;;46.76;23.93
9721;BME280;4899;42.644;23.366;2022-07-29T14:05:26;94258.06;;;46.75;23.49
9721;BME280;4899;42.644;23.366;2022-07-29T14:08:00;94297.47;;;46.81;23.91
9721;BME280;4899;42.644;23.366;2022-07-29T14:14:27;94246.00;;;46.24;24.55
9721;BME280;4899;42.644;23.366;2022-07-29T14:17:09;94284.56;;;46.74;24.09
9721;BME280;4899;42.644;23.366;2022-07-29T14:23:57;94298.75;;;47.03;24.48
9721;BME280;4899;42.644;23.366;2022-07-29T14:26:43;94301.09;;;46.84;24.31
9721;BME280;4899;42.644;23.366;2022-07-29T14:31:34;94202.84;;;46.44;24.24
9721;BME280;4899;42.644;23.366;2022-07-29T14:32:20;94276.41;;;47.05;23.90
9721;BME280;4899;42.644;23.366;2022-07-29T14:35:07;94302.03;;;46.86;23.87
9721;BME280;4899;42.644;23.366;2022-07-29T14:37:58;94237.28;;;45.75;24.95